Time;durP1;ratioP1;P1;durP2;ratioP2;P2;SDS_P1;SDS_P2;PMS_P1;PMS_P2;Temp;Humidity;BMP_temperature;BMP_pressure;BME280_temperature;BME280_humidity;BME280_pressure;Samples;Min_cycle;Max_cycle;Signal;HPM_P1;HPM_P2
2024/04/09 00:00:50;;;;;;;2.58;0.80;;;;;;;;;;5521092;26;20002;-57
2024/04/09 00:03:18;;;;;;;2.30;0.70;;;;;;;;;;5520957;26;20080;-58
2024/04/09 00:05:44;;;;;;;3.20;1.00;;;;;;;;;;5519995;26;20066;-58
2024/04/09 00:08:12;;;;;;;3.10;1.02;;;;;;;;;;5520851;26;20652;-59
2024/04/09 00:10:38;;;;;;;2.40;0.88;;;;;;;;;;5520524;26;20458;-58
2024/04/09 00:13:06;;;;;;;2.17;0.80;;;;;;;;;;5519131;26;19997;-61
2024/04/09 00:15:36;;;;;;;2.95;0.90;;;;;;;;;;5520207;26;20433;-58
2024/04/09 00:18:17;;;;;;;3.13;1.00;;;;;;;;;;5486526;26;20012;-59
2024/04/09 00:20:44;;;;;;;1.73;0.70;;;;;;;;;;5524029;26;20005;-58
2024/04/09 00:23:12;;;;;;;2.17;0.70;;;;;;;;;;5485414;26;20001;-56
2024/04/09 00:25:37;;;;;;;1.30;0.50;;;;;;;;;;5521666;26;20321;-57
2024/04/09 00:28:03;;;;;;;2.78;0.80;;;;;;;;;;5524061;26;19994;-57
2024/04/09 00:30:29;;;;;;;3.03;0.55;;;;;;;;;;5487938;26;20005;-54
2024/04/09 00:32:54;;;;;;;2.85;0.70;;;;;;;;;;5524274;26;19990;-60
2024/04/09 00:35:23;;;;;;;4.30;1.23;;;;;;;;;;5523976;26;20393;-57
2024/04/09 00:37:54;;;;;;;3.03;0.90;;;;;;;;;;5491650;26;19994;-55
2024/04/09 00:40:29;;;;;;;0.98;0.40;;;;;;;;;;5490254;26;21531;-59
2024/04/09 00:42:57;;;;;;;3.08;0.93;;;;;;;;;;5524018;26;20322;-60
2024/04/09 00:45:23;;;;;;;3.15;1.00;;;;;;;;;;5523065;26;20009;-60
2024/04/09 00:47:49;;;;;;;1.67;0.63;;;;;;;;;;5523910;26;20078;-59
2024/04/09 00:50:17;;;;;;;2.10;0.77;;;;;;;;;;5488847;26;20008;-59
2024/04/09 00:52:42;;;;;;;2.08;0.90;;;;;;;;;;5484759;26;19995;-60
2024/04/09 00:55:11;;;;;;;2.15;0.70;;;;;;;;;;5507431;26;20013;-57
2024/04/09 00:57:39;;;;;;;1.63;0.57;;;;;;;;;;5523484;26;19998;-60
2024/04/09 01:00:06;;;;;;;2.33;0.80;;;;;;;;;;5502108;26;20045;-58
2024/04/09 01:02:32;;;;;;;2.58;0.88;;;;;;;;;;5523354;26;20013;-61
2024/04/09 01:04:58;;;;;;;2.10;0.85;;;;;;;;;;5523670;26;20009;-53
2024/04/09 01:07:23;;;;;;;2.28;0.65;;;;;;;;;;5490815;26;19993;-52
2024/04/09 01:09:48;;;;;;;2.03;0.60;;;;;;;;;;5522937;26;20004;-50
2024/04/09 01:12:14;;;;;;;1.67;0.57;;;;;;;;;;5523431;26;20001;-50
2024/04/09 01:14:39;;;;;;;1.15;0.60;;;;;;;;;;5523622;26;20661;-53
2024/04/09 01:17:04;;;;;;;2.65;0.80;;;;;;;;;;5522616;26;20541;-52
2024/04/09 01:19:30;;;;;;;3.85;0.73;;;;;;;;;;5523478;26;20020;-48
2024/04/09 01:21:55;;;;;;;1.35;0.60;;;;;;;;;;5523571;26;19997;-50
2024/04/09 01:24:21;;;;;;;1.88;0.68;;;;;;;;;;5522666;26;20020;-50
2024/04/09 01:26:49;;;;;;;1.95;0.70;;;;;;;;;;5522378;26;20064;-52
2024/04/09 01:29:17;;;;;;;2.85;0.90;;;;;;;;;;5523363;26;20001;-51
2024/04/09 01:31:43;;;;;;;2.22;0.60;;;;;;;;;;5485810;26;20698;-49
2024/04/09 01:34:09;;;;;;;1.27;0.55;;;;;;;;;;5522671;26;20002;-49
2024/04/09 01:36:35;;;;;;;4.40;1.00;;;;;;;;;;5523141;26;20001;-49
2024/04/09 01:39:01;;;;;;;2.42;0.70;;;;;;;;;;5523373;26;20016;-51
2024/04/09 01:41:26;;;;;;;1.90;0.60;;;;;;;;;;5522164;26;20002;-50
2024/04/09 01:43:52;;;;;;;1.35;0.50;;;;;;;;;;5523185;26;20037;-49
2024/04/09 01:46:18;;;;;;;2.00;0.70;;;;;;;;;;5522755;26;20452;-52
2024/04/09 01:48:43;;;;;;;1.40;0.57;;;;;;;;;;5522336;26;20002;-51
2024/04/09 01:51:12;;;;;;;1.33;0.57;;;;;;;;;;5522786;26;20006;-49
2024/04/09 01:53:41;;;;;;;0.75;0.40;;;;;;;;;;5522902;26;20445;-49
2024/04/09 01:56:08;;;;;;;1.35;0.60;;;;;;;;;;5489586;26;20068;-50
2024/04/09 01:58:55;;;;;;;2.85;0.70;;;;;;;;;;5524106;25;20013;-51
2024/04/09 02:01:21;;;;;;;1.60;0.73;;;;;;;;;;5513911;26;19997;-59
2024/04/09 02:03:49;;;;;;;2.35;0.68;;;;;;;;;;5521938;26;20007;-61
2024/04/09 02:06:16;;;;;;;1.45;0.60;;;;;;;;;;5521801;26;20069;-60
2024/04/09 02:08:42;;;;;;;2.33;0.70;;;;;;;;;;5483796;26;20001;-59
2024/04/09 02:11:12;;;;;;;2.78;0.80;;;;;;;;;;5515322;26;20066;-60
2024/04/09 02:13:40;;;;;;;1.20;0.60;;;;;;;;;;5521467;26;20427;-49
2024/04/09 02:16:08;;;;;;;0.80;0.40;;;;;;;;;;5522308;26;19997;-47
2024/04/09 02:18:37;;;;;;;1.95;0.70;;;;;;;;;;5522263;26;20008;-52
2024/04/09 02:21:07;;;;;;;2.08;0.90;;;;;;;;;;5521468;26;20456;-55
2024/04/09 02:23:36;;;;;;;1.73;0.60;;;;;;;;;;5520505;26;20009;-52
2024/04/09 02:26:02;;;;;;;2.55;0.68;;;;;;;;;;5516562;26;20070;-50
2024/04/09 02:28:27;;;;;;;1.85;0.68;;;;;;;;;;5521073;26;20009;-48
2024/04/09 02:30:52;;;;;;;1.38;0.60;;;;;;;;;;5522113;26;20045;-49
2024/04/09 02:33:18;;;;;;;1.17;0.60;;;;;;;;;;5517873;26;19998;-51
2024/04/09 02:35:59;;;;;;;0.95;0.50;;;;;;;;;;5521540;26;19997;-48
2024/04/09 02:38:26;;;;;;;2.15;0.80;;;;;;;;;;5477997;26;20002;-50
2024/04/09 02:40:52;;;;;;;1.65;0.68;;;;;;;;;;5521633;26;19997;-51
2024/04/09 02:43:18;;;;;;;0.93;0.47;;;;;;;;;;5521513;26;19997;-51
2024/04/09 02:45:43;;;;;;;1.25;0.50;;;;;;;;;;5521313;26;20012;-51
2024/04/09 02:48:09;;;;;;;1.00;0.40;;;;;;;;;;5521864;26;20010;-48
2024/04/09 02:50:34;;;;;;;1.00;0.50;;;;;;;;;;5521632;26;20306;-49
2024/04/09 02:52:59;;;;;;;2.00;0.60;;;;;;;;;;5482120;26;20694;-52
2024/04/09 02:55:25;;;;;;;1.20;0.32;;;;;;;;;;5513340;26;19998;-48
2024/04/09 02:57:50;;;;;;;1.15;0.52;;;;;;;;;;5521494;26;20011;-49
2024/04/09 03:00:19;;;;;;;1.08;0.50;;;;;;;;;;5520633;26;20066;-52
2024/04/09 03:02:51;;;;;;;1.90;0.35;;;;;;;;;;5521599;26;20001;-54
2024/04/09 03:05:26;;;;;;;0.75;0.35;;;;;;;;;;5521353;26;20009;-50
2024/04/09 03:07:52;;;;;;;0.45;0.30;;;;;;;;;;5520825;26;20001;-50
2024/04/09 03:10:17;;;;;;;0.90;0.50;;;;;;;;;;5521119;26;20019;-54
2024/04/09 03:12:43;;;;;;;0.80;0.30;;;;;;;;;;5521272;26;20069;-51
2024/04/09 03:15:08;;;;;;;1.45;0.35;;;;;;;;;;5520777;26;20516;-48
2024/04/09 03:17:34;;;;;;;0.70;0.40;;;;;;;;;;5520890;26;20635;-49
2024/04/09 03:19:59;;;;;;;0.95;0.40;;;;;;;;;;5521276;26;19998;-49
2024/04/09 03:22:25;;;;;;;0.70;0.40;;;;;;;;;;5521033;26;20496;-50
2024/04/09 03:24:50;;;;;;;0.93;0.32;;;;;;;;;;5519718;26;20460;-60
2024/04/09 03:27:16;;;;;;;1.40;0.50;;;;;;;;;;5520871;26;19993;-57
2024/04/09 03:29:41;;;;;;;0.70;0.38;;;;;;;;;;5520756;26;19997;-54
2024/04/09 03:32:06;;;;;;;1.38;0.43;;;;;;;;;;5520168;26;20658;-59
2024/04/09 03:34:33;;;;;;;1.20;0.35;;;;;;;;;;5516985;26;20330;-56
2024/04/09 03:36:59;;;;;;;0.63;0.35;;;;;;;;;;5519854;26;20033;-58
2024/04/09 03:39:25;;;;;;;0.93;0.30;;;;;;;;;;5518726;26;19998;-54
2024/04/09 03:41:50;;;;;;;0.43;0.30;;;;;;;;;;5520548;26;20160;-50
2024/04/09 03:44:15;;;;;;;0.77;0.40;;;;;;;;;;5520605;26;20051;-54
2024/04/09 03:46:41;;;;;;;0.95;0.40;;;;;;;;;;5520571;26;20069;-51
2024/04/09 03:49:07;;;;;;;0.38;0.28;;;;;;;;;;5519992;26;20069;-53
2024/04/09 03:51:32;;;;;;;0.80;0.43;;;;;;;;;;5523771;26;20001;-55
2024/04/09 03:53:57;;;;;;;0.28;0.25;;;;;;;;;;5524520;26;19997;-52
2024/04/09 03:56:23;;;;;;;0.45;0.22;;;;;;;;;;5523150;26;20012;-50
2024/04/09 03:58:51;;;;;;;0.55;0.30;;;;;;;;;;5523890;26;19998;-55
2024/04/09 04:01:17;;;;;;;0.32;0.22;;;;;;;;;;5524296;26;20433;-50
2024/04/09 04:03:48;;;;;;;1.95;0.30;;;;;;;;;;5522733;25;20016;-52
2024/04/09 04:06:13;;;;;;;0.15;0.15;;;;;;;;;;5485595;26;19994;-50
2024/04/09 04:08:40;;;;;;;0.57;0.35;;;;;;;;;;5482366;26;19993;-49
2024/04/09 04:11:07;;;;;;;0.43;0.20;;;;;;;;;;5487719;26;20452;-50
2024/04/09 04:13:34;;;;;;;0.68;0.32;;;;;;;;;;5491351;26;20016;-50
2024/04/09 04:16:06;;;;;;;0.82;0.38;;;;;;;;;;5488182;26;19998;-50
2024/04/09 04:18:39;;;;;;;0.77;0.40;;;;;;;;;;5490856;26;20017;-51
2024/04/09 04:21:09;;;;;;;0.43;0.30;;;;;;;;;;5471488;26;20393;-54
2024/04/09 04:23:35;;;;;;;0.65;0.40;;;;;;;;;;5482911;26;20410;-52
2024/04/09 04:26:02;;;;;;;0.98;0.32;;;;;;;;;;5523509;26;20001;-50
2024/04/09 04:28:28;;;;;;;0.55;0.30;;;;;;;;;;5490857;26;20001;-53
2024/04/09 04:30:54;;;;;;;0.95;0.30;;;;;;;;;;5460591;26;20419;-52
2024/04/09 04:33:19;;;;;;;0.35;0.30;;;;;;;;;;5523659;26;20009;-50
2024/04/09 04:35:45;;;;;;;0.30;0.28;;;;;;;;;;5522900;26;20009;-53
2024/04/09 04:38:10;;;;;;;0.40;0.20;;;;;;;;;;5523493;26;19998;-53
2024/04/09 04:40:35;;;;;;;0.20;0.20;;;;;;;;;;5523783;26;20461;-52
2024/04/09 04:43:01;;;;;;;0.28;0.20;;;;;;;;;;5522649;26;20531;-52
2024/04/09 04:45:26;;;;;;;0.98;0.40;;;;;;;;;;5523521;26;20413;-50
2024/04/09 04:47:52;;;;;;;0.20;0.20;;;;;;;;;;5521649;26;19998;-51
2024/04/09 04:50:17;;;;;;;0.50;0.40;;;;;;;;;;5523072;26;20008;-51
2024/04/09 04:52:42;;;;;;;0.80;0.40;;;;;;;;;;5523181;26;20008;-54
2024/04/09 04:55:09;;;;;;;0.32;0.30;;;;;;;;;;5523406;26;20700;-52
2024/04/09 04:57:34;;;;;;;0.47;0.30;;;;;;;;;;5523205;26;20008;-50
2024/04/09 05:00:00;;;;;;;0.47;0.35;;;;;;;;;;5522636;26;20001;-53
2024/04/09 05:02:27;;;;;;;0.32;0.30;;;;;;;;;;5521270;26;19998;-53
2024/04/09 05:04:53;;;;;;;0.60;0.20;;;;;;;;;;5523325;26;20445;-49
2024/04/09 05:07:21;;;;;;;0.32;0.30;;;;;;;;;;5522505;26;20008;-51
2024/04/09 05:09:48;;;;;;;0.50;0.30;;;;;;;;;;5522592;26;20009;-50
2024/04/09 05:12:13;;;;;;;0.20;0.20;;;;;;;;;;5490446;26;20005;-51
2024/04/09 05:14:38;;;;;;;0.85;0.38;;;;;;;;;;5522504;26;20001;-55
2024/04/09 05:17:04;;;;;;;0.40;0.30;;;;;;;;;;5522837;26;20009;-49
2024/04/09 05:19:29;;;;;;;0.40;0.30;;;;;;;;;;5521574;26;20001;-56
2024/04/09 05:21:54;;;;;;;0.85;0.38;;;;;;;;;;5522839;26;20081;-53
2024/04/09 05:24:23;;;;;;;0.63;0.32;;;;;;;;;;5522484;26;20009;-49
2024/04/09 05:26:48;;;;;;;0.40;0.25;;;;;;;;;;5522953;26;19997;-49
2024/04/09 05:29:13;;;;;;;1.17;0.40;;;;;;;;;;5520182;26;20016;-53
2024/04/09 05:31:38;;;;;;;0.80;0.38;;;;;;;;;;5522238;26;20015;-52
2024/04/09 05:34:04;;;;;;;0.25;0.22;;;;;;;;;;5522647;26;20486;-51
2024/04/09 05:36:31;;;;;;;0.63;0.40;;;;;;;;;;5522774;26;20424;-50
2024/04/09 05:38:57;;;;;;;0.22;0.22;;;;;;;;;;5522021;26;20009;-51
2024/04/09 05:41:22;;;;;;;0.32;0.30;;;;;;;;;;5522779;26;20393;-51
2024/04/09 05:43:47;;;;;;;1.05;0.30;;;;;;;;;;5522560;26;20046;-52
2024/04/09 05:46:13;;;;;;;0.43;0.40;;;;;;;;;;5522252;26;19997;-54
2024/04/09 05:48:38;;;;;;;0.45;0.30;;;;;;;;;;5522500;26;20441;-50
2024/04/09 05:51:03;;;;;;;0.63;0.38;;;;;;;;;;5522456;26;20002;-54
2024/04/09 05:53:29;;;;;;;0.43;0.30;;;;;;;;;;5522091;26;19997;-52
2024/04/09 05:55:55;;;;;;;0.57;0.30;;;;;;;;;;5521981;26;20016;-50
2024/04/09 05:58:20;;;;;;;0.77;0.38;;;;;;;;;;5484045;26;19998;-52
2024/04/09 06:00:46;;;;;;;0.85;0.43;;;;;;;;;;5517515;26;20012;-53
2024/04/09 06:03:13;;;;;;;0.63;0.40;;;;;;;;;;5521581;26;20009;-51
2024/04/09 06:05:38;;;;;;;1.35;0.50;;;;;;;;;;5522562;26;19997;-50
2024/04/09 06:08:04;;;;;;;0.82;0.38;;;;;;;;;;5522154;26;20013;-51
2024/04/09 06:10:30;;;;;;;0.25;0.25;;;;;;;;;;5489044;26;20001;-50
2024/04/09 06:12:55;;;;;;;1.27;0.25;;;;;;;;;;5522351;26;20007;-52
2024/04/09 06:15:22;;;;;;;0.60;0.32;;;;;;;;;;5522155;26;20073;-62
2024/04/09 06:17:47;;;;;;;0.85;0.30;;;;;;;;;;5521792;26;20005;-60
2024/04/09 06:20:14;;;;;;;0.52;0.30;;;;;;;;;;5522052;26;20429;-60
2024/04/09 06:22:39;;;;;;;0.68;0.30;;;;;;;;;;5489719;26;20016;-59
2024/04/09 06:25:04;;;;;;;0.80;0.30;;;;;;;;;;5521945;26;20325;-57
2024/04/09 06:27:30;;;;;;;0.35;0.25;;;;;;;;;;5521248;26;20325;-61
2024/04/09 06:29:55;;;;;;;0.57;0.30;;;;;;;;;;5521913;26;20073;-59
2024/04/09 06:32:21;;;;;;;1.13;0.40;;;;;;;;;;5522080;26;20437;-60
2024/04/09 06:34:46;;;;;;;0.50;0.30;;;;;;;;;;5521106;26;20005;-53
2024/04/09 06:37:12;;;;;;;0.43;0.30;;;;;;;;;;5522054;26;20077;-52
2024/04/09 06:39:37;;;;;;;0.55;0.30;;;;;;;;;;5521760;26;19998;-52
2024/04/09 06:42:03;;;;;;;0.60;0.30;;;;;;;;;;5521242;26;20024;-56
2024/04/09 06:44:30;;;;;;;0.40;0.30;;;;;;;;;;5521887;26;20012;-55
2024/04/09 06:46:55;;;;;;;0.32;0.25;;;;;;;;;;5521787;26;19997;-49
2024/04/09 06:49:21;;;;;;;0.20;0.20;;;;;;;;;;5521124;26;20455;-57
2024/04/09 06:51:46;;;;;;;0.30;0.30;;;;;;;;;;5521155;26;20009;-51
2024/04/09 06:54:11;;;;;;;0.30;0.30;;;;;;;;;;5520656;26;19994;-54
2024/04/09 06:56:36;;;;;;;2.17;0.60;;;;;;;;;;5521687;26;20049;-56
2024/04/09 06:59:02;;;;;;;1.27;0.35;;;;;;;;;;5520926;26;19997;-53
2024/04/09 07:01:28;;;;;;;3.70;0.45;;;;;;;;;;5521442;26;20016;-58
2024/04/09 07:03:53;;;;;;;1.13;0.47;;;;;;;;;;5521718;26;20392;-61
2024/04/09 07:06:19;;;;;;;2.78;0.40;;;;;;;;;;5520440;26;20016;-59
2024/04/09 07:08:45;;;;;;;3.80;0.35;;;;;;;;;;5521483;26;20005;-57
2024/04/09 07:11:10;;;;;;;2.05;0.30;;;;;;;;;;5521238;26;20043;-58
2024/04/09 07:13:36;;;;;;;9.02;0.63;;;;;;;;;;5520594;26;20075;-50
2024/04/09 07:16:02;;;;;;;5.07;0.77;;;;;;;;;;5520898;26;20433;-51
2024/04/09 07:18:27;;;;;;;1.42;0.50;;;;;;;;;;5521403;26;19998;-50
2024/04/09 07:20:53;;;;;;;4.25;0.30;;;;;;;;;;5520896;26;20061;-52
2024/04/09 07:23:18;;;;;;;2.90;0.32;;;;;;;;;;5520620;26;20492;-50
2024/04/09 07:25:43;;;;;;;1.00;0.32;;;;;;;;;;5520441;26;20047;-53
2024/04/09 07:28:09;;;;;;;0.15;0.15;;;;;;;;;;5521099;26;20001;-52
2024/04/09 07:30:37;;;;;;;1.20;0.30;;;;;;;;;;5520219;26;20025;-48
2024/04/09 07:33:04;;;;;;;1.38;0.30;;;;;;;;;;5520849;26;20030;-52
2024/04/09 07:35:30;;;;;;;0.93;0.28;;;;;;;;;;5521219;26;20321;-56
2024/04/09 07:37:56;;;;;;;3.55;0.50;;;;;;;;;;5501088;26;20559;-60
2024/04/09 07:40:22;;;;;;;0.20;0.20;;;;;;;;;;5520752;26;20397;-55
2024/04/09 07:42:47;;;;;;;2.10;0.22;;;;;;;;;;5520731;26;20001;-58
2024/04/09 07:45:13;;;;;;;1.33;0.43;;;;;;;;;;5520252;26;20004;-60
2024/04/09 07:47:40;;;;;;;1.48;0.32;;;;;;;;;;5520517;26;20421;-59
2024/04/09 07:50:09;;;;;;;0.20;0.20;;;;;;;;;;5520065;26;20110;-60
2024/04/09 07:52:38;;;;;;;0.98;0.38;;;;;;;;;;5497599;26;19997;-49
2024/04/09 07:55:07;;;;;;;0.40;0.20;;;;;;;;;;5520068;26;20002;-52
2024/04/09 07:57:36;;;;;;;0.52;0.20;;;;;;;;;;5482101;26;19999;-51
2024/04/09 08:00:03;;;;;;;0.25;0.20;;;;;;;;;;5517427;26;20009;-50
2024/04/09 08:02:29;;;;;;;3.75;0.30;;;;;;;;;;5519615;26;20012;-51
2024/04/09 08:04:54;;;;;;;0.63;0.47;;;;;;;;;;5520380;26;20001;-48
2024/04/09 08:07:19;;;;;;;0.32;0.22;;;;;;;;;;5520017;26;20008;-58
2024/04/09 08:09:45;;;;;;;0.20;0.20;;;;;;;;;;5519644;26;20002;-58
2024/04/09 08:12:10;;;;;;;0.30;0.15;;;;;;;;;;5518889;26;19998;-55
2024/04/09 08:14:36;;;;;;;3.30;0.30;;;;;;;;;;5508895;25;20041;-60
2024/04/09 08:17:01;;;;;;;0.30;0.30;;;;;;;;;;5486347;26;19997;-59
2024/04/09 08:19:28;;;;;;;0.20;0.20;;;;;;;;;;5515644;26;20479;-58
2024/04/09 08:21:54;;;;;;;0.60;0.30;;;;;;;;;;5519859;26;20016;-60
2024/04/09 08:24:20;;;;;;;1.35;0.45;;;;;;;;;;5519511;26;20005;-59
2024/04/09 08:26:45;;;;;;;2.30;0.63;;;;;;;;;;5519006;26;19994;-57
2024/04/09 08:29:15;;;;;;;1.08;0.30;;;;;;;;;;5519420;26;20019;-59
2024/04/09 08:31:44;;;;;;;0.22;0.20;;;;;;;;;;5519656;26;20013;-58
2024/04/09 08:34:10;;;;;;;0.73;0.30;;;;;;;;;;5516970;26;20026;-55
2024/04/09 08:36:38;;;;;;;0.63;0.20;;;;;;;;;;5518876;26;20013;-51
2024/04/09 08:39:04;;;;;;;0.20;0.20;;;;;;;;;;5520124;26;19997;-62
2024/04/09 08:41:30;;;;;;;1.35;0.35;;;;;;;;;;5522230;26;20016;-57
2024/04/09 08:43:58;;;;;;;0.20;0.20;;;;;;;;;;5523803;26;20101;-59
2024/04/09 08:46:23;;;;;;;1.27;0.20;;;;;;;;;;5519360;26;20066;-58
2024/04/09 08:48:50;;;;;;;0.20;0.20;;;;;;;;;;5521215;26;19998;-58
2024/04/09 08:51:16;;;;;;;0.77;0.30;;;;;;;;;;5521710;26;20029;-53
2024/04/09 08:53:44;;;;;;;0.38;0.20;;;;;;;;;;5484209;26;20010;-55
2024/04/09 08:56:10;;;;;;;0.30;0.30;;;;;;;;;;5514795;26;20478;-50
2024/04/09 08:58:36;;;;;;;0.30;0.25;;;;;;;;;;5523106;26;20045;-54
2024/04/09 09:01:02;;;;;;;0.90;0.30;;;;;;;;;;5523436;26;20008;-57
2024/04/09 09:03:27;;;;;;;0.20;0.20;;;;;;;;;;5523133;26;20001;-59
2024/04/09 09:06:04;;;;;;;0.47;0.38;;;;;;;;;;5522571;26;19993;-60
2024/04/09 09:08:42;;;;;;;0.68;0.38;;;;;;;;;;5522995;26;19997;-57
2024/04/09 09:11:09;;;;;;;0.57;0.22;;;;;;;;;;5490510;26;19993;-56
2024/04/09 09:13:34;;;;;;;0.30;0.20;;;;;;;;;;5482677;26;19995;-50
2024/04/09 09:15:59;;;;;;;2.08;0.73;;;;;;;;;;5519595;26;20447;-53
2024/04/09 09:18:25;;;;;;;0.20;0.20;;;;;;;;;;5522844;26;20006;-50
2024/04/09 09:21:00;;;;;;;0.20;0.20;;;;;;;;;;5518589;26;20005;-53
2024/04/09 09:23:26;;;;;;;0.28;0.28;;;;;;;;;;5522821;26;20002;-54
2024/04/09 09:25:52;;;;;;;0.77;0.28;;;;;;;;;;5523098;26;20017;-51
2024/04/09 09:28:20;;;;;;;0.28;0.28;;;;;;;;;;5522244;26;20005;-57
2024/04/09 09:30:46;;;;;;;0.20;0.20;;;;;;;;;;5490476;26;20016;-52
2024/04/09 09:33:31;;;;;;;0.30;0.30;;;;;;;;;;5522669;26;20001;-49
2024/04/09 09:35:57;;;;;;;0.20;0.20;;;;;;;;;;5491705;26;20029;-54
2024/04/09 09:38:26;;;;;;;0.63;0.40;;;;;;;;;;5487163;26;20006;-51
2024/04/09 09:40:52;;;;;;;0.70;0.40;;;;;;;;;;5490694;26;20380;-50
2024/04/09 09:43:22;;;;;;;1.00;0.50;;;;;;;;;;5490054;26;20009;-52
2024/04/09 09:45:48;;;;;;;0.40;0.30;;;;;;;;;;5489757;26;20062;-52
2024/04/09 09:48:17;;;;;;;0.65;0.40;;;;;;;;;;5522563;26;20001;-51
2024/04/09 09:50:43;;;;;;;0.90;0.45;;;;;;;;;;5490592;26;20029;-53
2024/04/09 09:53:08;;;;;;;0.60;0.38;;;;;;;;;;5521802;26;20001;-49
2024/04/09 09:55:35;;;;;;;0.55;0.38;;;;;;;;;;5522851;26;20001;-50
2024/04/09 09:58:03;;;;;;;0.35;0.30;;;;;;;;;;5489892;26;20016;-49
2024/04/09 10:00:29;;;;;;;1.02;0.50;;;;;;;;;;5473954;26;19998;-60
2024/04/09 10:02:55;;;;;;;1.63;0.45;;;;;;;;;;5488954;26;20496;-60
2024/04/09 10:05:20;;;;;;;1.08;0.50;;;;;;;;;;5516547;25;19993;-61
2024/04/09 10:07:49;;;;;;;2.55;0.45;;;;;;;;;;5521516;26;20379;-59
2024/04/09 10:10:30;;;;;;;0.98;0.30;;;;;;;;;;5521992;26;20008;-57
2024/04/09 10:12:56;;;;;;;0.20;0.20;;;;;;;;;;5521284;26;20068;-57
2024/04/09 10:15:25;;;;;;;0.70;0.47;;;;;;;;;;5521648;26;20397;-59
2024/04/09 10:17:54;;;;;;;0.20;0.20;;;;;;;;;;5521696;26;20046;-60
2024/04/09 10:20:21;;;;;;;0.30;0.30;;;;;;;;;;5521767;26;20431;-59
2024/04/09 10:22:47;;;;;;;0.77;0.50;;;;;;;;;;5483761;26;20006;-59
2024/04/09 10:25:20;;;;;;;0.90;0.50;;;;;;;;;;5458437;26;20025;-60
2024/04/09 10:27:46;;;;;;;1.02;0.50;;;;;;;;;;5521855;26;20012;-58
2024/04/09 10:30:16;;;;;;;1.33;0.65;;;;;;;;;;5489233;26;20002;-59
2024/04/09 10:32:55;;;;;;;2.60;0.50;;;;;;;;;;5487634;26;20008;-59
2024/04/09 10:35:22;;;;;;;0.85;0.45;;;;;;;;;;5521789;26;20464;-56
2024/04/09 10:37:48;;;;;;;0.88;0.50;;;;;;;;;;5521847;26;20009;-59
2024/04/09 10:40:13;;;;;;;0.75;0.40;;;;;;;;;;5520684;26;20011;-60
2024/04/09 10:42:38;;;;;;;0.85;0.50;;;;;;;;;;5521394;26;19997;-60
2024/04/09 10:45:04;;;;;;;1.63;0.70;;;;;;;;;;5521155;26;20006;-57
2024/04/09 10:47:31;;;;;;;1.38;0.68;;;;;;;;;;5515375;26;20029;-60
2024/04/09 10:49:57;;;;;;;1.90;0.70;;;;;;;;;;5521321;26;20007;-60
2024/04/09 10:52:22;;;;;;;1.17;0.50;;;;;;;;;;5521543;26;20009;-59
2024/04/09 10:54:47;;;;;;;2.13;0.80;;;;;;;;;;5487057;26;20008;-58
2024/04/09 10:57:13;;;;;;;0.90;0.50;;;;;;;;;;5521013;26;20013;-57
2024/04/09 10:59:38;;;;;;;2.28;0.70;;;;;;;;;;5516410;26;20086;-61
2024/04/09 11:02:06;;;;;;;3.22;0.70;;;;;;;;;;5521378;26;19997;-56
2024/04/09 11:04:33;;;;;;;1.08;0.50;;;;;;;;;;5515796;25;20002;-59
2024/04/09 11:07:00;;;;;;;1.23;0.65;;;;;;;;;;5486827;26;20001;-59
2024/04/09 11:09:25;;;;;;;1.50;0.70;;;;;;;;;;5463320;26;19999;-61
2024/04/09 11:11:51;;;;;;;1.63;0.80;;;;;;;;;;5516263;26;20515;-62
2024/04/09 11:14:16;;;;;;;2.15;0.90;;;;;;;;;;5479723;26;19997;-58
2024/04/09 11:16:46;;;;;;;1.58;0.60;;;;;;;;;;5518892;26;20412;-58
2024/04/09 11:19:11;;;;;;;2.15;0.88;;;;;;;;;;5510728;26;20367;-61
2024/04/09 11:21:36;;;;;;;1.85;0.70;;;;;;;;;;5519073;26;20001;-61
2024/04/09 11:24:02;;;;;;;1.58;0.82;;;;;;;;;;5519001;26;19994;-58
2024/04/09 11:26:27;;;;;;;1.08;0.50;;;;;;;;;;5519445;26;19998;-60
2024/04/09 11:28:53;;;;;;;1.75;0.80;;;;;;;;;;5519068;26;20009;-55
2024/04/09 11:31:27;;;;;;;1.70;0.70;;;;;;;;;;5519898;26;20433;-51
2024/04/09 11:33:53;;;;;;;2.28;0.70;;;;;;;;;;5519811;25;20076;-55
2024/04/09 11:36:18;;;;;;;2.15;0.70;;;;;;;;;;5518742;26;20010;-53
2024/04/09 11:38:43;;;;;;;1.27;0.70;;;;;;;;;;5518540;26;19998;-49
2024/04/09 11:41:09;;;;;;;1.48;0.80;;;;;;;;;;5519472;26;20017;-53
2024/04/09 11:43:34;;;;;;;1.67;0.70;;;;;;;;;;5517383;26;20016;-55
2024/04/09 11:46:01;;;;;;;1.20;0.70;;;;;;;;;;5519572;26;20433;-61
2024/04/09 11:48:26;;;;;;;1.80;0.80;;;;;;;;;;5486351;26;20209;-60
2024/04/09 11:50:52;;;;;;;2.40;0.80;;;;;;;;;;5513943;25;20012;-61
2024/04/09 11:53:18;;;;;;;1.45;0.80;;;;;;;;;;5503025;26;19994;-62
2024/04/09 11:55:44;;;;;;;2.50;0.80;;;;;;;;;;5505978;26;20070;-62
2024/04/09 11:58:10;;;;;;;1.45;0.75;;;;;;;;;;5501297;26;20004;-62
2024/04/09 12:00:35;;;;;;;1.98;1.17;;;;;;;;;;5512769;26;19994;-59
2024/04/09 12:03:02;;;;;;;4.75;0.90;;;;;;;;;;5515919;25;20005;-58
2024/04/09 12:05:28;;;;;;;0.82;0.55;;;;;;;;;;5450496;26;20376;-60
2024/04/09 12:07:53;;;;;;;1.65;0.60;;;;;;;;;;5517531;26;19993;-59
2024/04/09 12:10:19;;;;;;;1.50;0.73;;;;;;;;;;5508616;26;20002;-61
2024/04/09 12:12:44;;;;;;;1.95;0.85;;;;;;;;;;5521710;26;19997;-58
2024/04/09 12:15:09;;;;;;;2.17;0.77;;;;;;;;;;5511492;25;20005;-59
2024/04/09 12:17:35;;;;;;;2.03;0.88;;;;;;;;;;5521993;26;19997;-62
2024/04/09 12:20:01;;;;;;;4.43;0.75;;;;;;;;;;5513006;25;20007;-58
2024/04/09 12:22:27;;;;;;;1.75;0.70;;;;;;;;;;5510534;25;19990;-59
2024/04/09 12:24:52;;;;;;;1.55;0.70;;;;;;;;;;5489648;26;20010;-58
2024/04/09 12:27:18;;;;;;;1.13;0.60;;;;;;;;;;5515224;26;20068;-61
2024/04/09 12:29:44;;;;;;;1.42;0.60;;;;;;;;;;5513506;25;19990;-57
2024/04/09 12:32:10;;;;;;;1.67;0.73;;;;;;;;;;5519664;26;20108;-59
2024/04/09 12:34:39;;;;;;;1.30;0.70;;;;;;;;;;5502527;26;20485;-61
2024/04/09 12:37:05;;;;;;;1.63;0.82;;;;;;;;;;5522244;26;19993;-62
2024/04/09 12:39:31;;;;;;;2.47;0.88;;;;;;;;;;5521240;26;20843;-60
2024/04/09 12:41:58;;;;;;;2.13;0.90;;;;;;;;;;5521779;26;19998;-61
2024/04/09 12:44:23;;;;;;;1.83;0.80;;;;;;;;;;5483671;26;20008;-60
2024/04/09 12:46:49;;;;;;;2.00;0.70;;;;;;;;;;5514459;26;20701;-60
2024/04/09 12:49:15;;;;;;;2.70;0.88;;;;;;;;;;5509675;26;20425;-61
2024/04/09 12:51:41;;;;;;;2.17;0.80;;;;;;;;;;5511659;25;20779;-49
2024/04/09 12:54:07;;;;;;;2.38;1.00;;;;;;;;;;5512919;25;19993;-51
2024/04/09 12:56:32;;;;;;;1.77;0.60;;;;;;;;;;5516791;25;20001;-52
2024/04/09 12:58:58;;;;;;;1.65;0.70;;;;;;;;;;5521421;26;19997;-54
2024/04/09 13:01:23;;;;;;;1.75;0.80;;;;;;;;;;5503901;26;19994;-59
2024/04/09 13:03:50;;;;;;;1.95;0.85;;;;;;;;;;5516079;25;20064;-56
2024/04/09 13:06:15;;;;;;;1.38;0.63;;;;;;;;;;5521802;26;20017;-59
2024/04/09 13:08:40;;;;;;;2.20;0.70;;;;;;;;;;5521491;26;19993;-58
2024/04/09 13:11:06;;;;;;;2.28;0.85;;;;;;;;;;5520528;26;20012;-60
2024/04/09 13:13:31;;;;;;;2.40;0.85;;;;;;;;;;5489040;26;19998;-60
2024/04/09 13:15:57;;;;;;;2.88;0.60;;;;;;;;;;5521617;26;20034;-59
2024/04/09 13:18:23;;;;;;;4.35;0.80;;;;;;;;;;5521770;26;20021;-59
2024/04/09 13:20:48;;;;;;;1.77;0.85;;;;;;;;;;5520807;26;19998;-56
2024/04/09 13:23:14;;;;;;;1.98;0.73;;;;;;;;;;5515618;25;20199;-60
2024/04/09 13:25:40;;;;;;;3.08;0.80;;;;;;;;;;5521256;26;19989;-60
2024/04/09 13:28:05;;;;;;;4.38;0.88;;;;;;;;;;5488798;26;19994;-53
2024/04/09 13:30:30;;;;;;;5.60;1.05;;;;;;;;;;5521202;26;20369;-49
2024/04/09 13:32:56;;;;;;;2.45;0.80;;;;;;;;;;5521289;26;19993;-53
2024/04/09 13:35:21;;;;;;;4.03;1.17;;;;;;;;;;5520471;26;20015;-52
2024/04/09 13:37:46;;;;;;;2.05;0.80;;;;;;;;;;5521794;26;19993;-50
2024/04/09 13:40:12;;;;;;;4.10;0.90;;;;;;;;;;5519973;25;20000;-54
2024/04/09 13:42:41;;;;;;;4.28;0.90;;;;;;;;;;5535737;25;20037;-54
2024/04/09 13:45:07;;;;;;;5.03;0.95;;;;;;;;;;5536330;25;19998;-53
2024/04/09 13:47:32;;;;;;;6.90;1.30;;;;;;;;;;5541138;25;20072;-52
2024/04/09 13:49:58;;;;;;;1.67;0.70;;;;;;;;;;5537021;25;20065;-53
2024/04/09 13:52:23;;;;;;;1.45;0.77;;;;;;;;;;5532861;25;20016;-52
2024/04/09 13:54:49;;;;;;;3.50;1.00;;;;;;;;;;5525970;25;20013;-56
2024/04/09 13:57:15;;;;;;;1.67;0.75;;;;;;;;;;5537635;25;20012;-55
2024/04/09 13:59:40;;;;;;;2.47;0.80;;;;;;;;;;5530677;25;20009;-51
2024/04/09 14:02:16;;;;;;;1.23;0.60;;;;;;;;;;5536717;25;20044;-49
2024/04/09 14:04:44;;;;;;;2.53;1.02;;;;;;;;;;5506444;26;19993;-51
2024/04/09 14:07:09;;;;;;;2.75;0.80;;;;;;;;;;5529600;25;20440;-54
2024/04/09 14:09:35;;;;;;;1.80;0.85;;;;;;;;;;5539765;25;19992;-53
2024/04/09 14:12:00;;;;;;;2.60;0.60;;;;;;;;;;5533950;25;20372;-53
2024/04/09 14:14:26;;;;;;;2.97;0.80;;;;;;;;;;5538767;25;20694;-54
2024/04/09 14:16:51;;;;;;;1.60;0.80;;;;;;;;;;5540248;25;19996;-52
2024/04/09 14:19:19;;;;;;;1.90;0.88;;;;;;;;;;5529600;25;20005;-49
2024/04/09 14:21:45;;;;;;;1.85;0.80;;;;;;;;;;5539218;25;20632;-49
2024/04/09 14:24:10;;;;;;;1.58;0.70;;;;;;;;;;5541625;25;20019;-49
2024/04/09 14:26:36;;;;;;;1.98;0.80;;;;;;;;;;5535384;25;20044;-55
2024/04/09 14:29:01;;;;;;;3.83;0.70;;;;;;;;;;5535757;25;20612;-53
2024/04/09 14:31:27;;;;;;;2.42;0.70;;;;;;;;;;5530305;25;20011;-50
2024/04/09 14:33:53;;;;;;;2.30;0.93;;;;;;;;;;5538316;25;20081;-53
2024/04/09 14:36:18;;;;;;;3.38;0.60;;;;;;;;;;5536309;25;20005;-53
2024/04/09 14:38:43;;;;;;;1.33;0.45;;;;;;;;;;5535152;25;20036;-51